createdAt,value
2019-04-26T00:00:37.994Z,53.55
2019-04-26T00:03:12.093Z,45.38
2019-04-26T00:05:43.527Z,48.90
2019-04-26T00:08:15.789Z,45.05
2019-04-26T00:10:58.175Z,45.63
2019-04-26T00:13:34.055Z,48.02
2019-04-26T00:16:10.160Z,41.00
2019-04-26T00:18:42.732Z,47.70
2019-04-26T00:21:14.309Z,47.67
2019-04-26T00:23:45.999Z,47.45
2019-04-26T00:26:17.765Z,43.17
2019-04-26T00:28:49.285Z,51.10
2019-04-26T00:31:21.361Z,45.35
2019-04-26T00:33:53.008Z,45.70
2019-04-26T00:36:24.458Z,48.73
2019-04-26T00:38:55.911Z,43.65
2019-04-26T00:41:27.947Z,44.30
2019-04-26T00:43:59.646Z,45.15
2019-04-26T00:46:32.047Z,35.68
2019-04-26T00:49:05.350Z,39.48
2019-04-26T00:54:08.044Z,41.25
2019-04-26T00:56:40.043Z,42.27
2019-04-26T00:59:12.255Z,41.75
2019-04-26T01:01:45.259Z,36.00
2019-04-26T01:04:17.063Z,41.88
2019-04-26T01:06:50.266Z,39.83
2019-04-26T01:09:22.000Z,45.63
2019-04-26T01:11:53.366Z,41.95
2019-04-26T01:14:24.840Z,45.28
2019-04-26T01:16:56.265Z,49.77
2019-04-26T01:19:28.823Z,44.03
2019-04-26T01:22:03.158Z,38.95
2019-04-26T01:24:37.642Z,35.38
2019-04-26T01:27:10.506Z,46.15
2019-04-26T01:29:44.270Z,37.20
2019-04-26T01:32:17.678Z,38.55
2019-04-26T01:34:51.258Z,37.78
2019-04-26T01:37:22.632Z,48.58
2019-04-26T01:39:58.635Z,42.27
2019-04-26T01:42:48.109Z,38.58
2019-04-26T01:45:24.395Z,45.12
2019-04-26T01:47:58.792Z,44.50
2019-04-26T01:50:33.210Z,46.13
2019-04-26T01:53:05.749Z,53.92
2019-04-26T01:55:37.163Z,54.05
2019-04-26T01:58:08.650Z,56.23
2019-04-26T02:00:42.762Z,48.45
2019-04-26T02:03:15.961Z,52.13
2019-04-26T02:05:47.333Z,57.48
2019-04-26T02:08:19.062Z,47.40
2019-04-26T02:10:50.652Z,43.87
2019-04-26T02:13:24.835Z,41.80
2019-04-26T02:15:56.592Z,51.75
2019-04-26T02:18:28.147Z,41.63
2019-04-26T02:21:04.143Z,36.42
2019-04-26T02:23:53.786Z,42.03
2019-04-26T02:26:38.780Z,38.75
2019-04-26T02:29:18.409Z,38.95
2019-04-26T02:31:52.766Z,44.60
2019-04-26T02:34:26.038Z,45.70
2019-04-26T02:37:01.328Z,50.65
2019-04-26T02:39:37.511Z,44.08
2019-04-26T02:42:15.469Z,45.20
2019-04-26T02:44:51.428Z,61.73
2019-04-26T02:47:39.181Z,76.97
2019-04-26T02:50:15.551Z,49.90
2019-04-26T02:52:55.579Z,47.75
2019-04-26T02:55:57.490Z,43.17
2019-04-26T02:58:33.289Z,48.83
2019-04-26T03:01:05.036Z,39.48
2019-04-26T03:03:39.310Z,40.43
2019-04-26T03:06:11.209Z,39.38
2019-04-26T03:08:43.054Z,42.40
2019-04-26T03:11:17.860Z,53.05
2019-04-26T03:13:56.985Z,53.52
2019-04-26T03:16:33.369Z,49.30
2019-04-26T03:19:16.782Z,47.98
2019-04-26T03:22:00.319Z,47.10
2019-04-26T03:24:51.190Z,39.80
2019-04-26T03:27:44.419Z,46.23
2019-04-26T03:30:22.316Z,41.10
2019-04-26T03:33:24.235Z,53.48
2019-04-26T03:36:26.260Z,44.85
2019-04-26T03:39:17.433Z,43.60
2019-04-26T03:42:14.588Z,43.50
2019-04-26T03:44:58.075Z,58.38
2019-04-26T03:47:35.620Z,48.98
2019-04-26T03:50:17.732Z,45.95
2019-04-26T03:52:55.212Z,45.45
2019-04-26T03:55:31.260Z,40.83
2019-04-26T03:58:10.046Z,48.17
2019-04-26T04:00:46.933Z,41.75
2019-04-26T04:03:37.482Z,48.45
2019-04-26T04:06:11.932Z,59.48
2019-04-26T04:08:49.069Z,45.05
2019-04-26T04:11:26.334Z,34.23
2019-04-26T04:14:06.378Z,42.90
2019-04-26T04:16:57.302Z,44.45
2019-04-26T04:19:55.907Z,43.80
2019-04-26T04:22:34.477Z,34.43
2019-04-26T04:25:25.804Z,37.58
2019-04-26T04:28:06.147Z,41.65
2019-04-26T04:30:47.714Z,34.13
2019-04-26T04:33:47.898Z,30.70
2019-04-26T04:36:26.223Z,38.40
2019-04-26T04:39:13.359Z,25.60
2019-04-26T04:41:55.903Z,34.70
2019-04-26T04:45:08.070Z,40.12
2019-04-26T04:47:49.625Z,40.05
2019-04-26T04:50:24.874Z,22.60
2019-04-26T04:53:02.011Z,22.80
2019-04-26T04:55:46.289Z,28.05
2019-04-26T04:58:38.816Z,35.98
2019-04-26T05:01:17.548Z,30.80
2019-04-26T05:04:02.700Z,28.65
2019-04-26T05:06:47.497Z,34.55
2019-04-26T05:09:24.635Z,26.52
2019-04-26T05:12:11.114Z,37.35
2019-04-26T05:15:02.235Z,39.78
2019-04-26T05:18:01.082Z,36.85
2019-04-26T05:20:55.452Z,34.65
2019-04-26T05:23:51.085Z,42.00
2019-04-26T05:26:38.649Z,35.30
2019-04-26T05:29:31.334Z,45.67
2019-04-26T05:32:25.234Z,41.18
2019-04-26T05:38:00.188Z,36.68
2019-04-26T05:40:54.070Z,26.95
2019-04-26T05:43:32.768Z,30.68
2019-04-26T05:46:17.894Z,41.02
2019-04-26T05:49:03.086Z,32.90
2019-04-26T05:52:13.714Z,29.30
2019-04-26T05:54:52.281Z,25.05
2019-04-26T05:57:44.693Z,37.25
2019-04-26T06:00:52.199Z,32.88
2019-04-26T06:04:06.657Z,35.03
2019-04-26T06:06:45.448Z,33.05
2019-04-26T06:09:42.602Z,28.95
2019-04-26T06:12:24.109Z,42.35
2019-04-26T06:15:28.468Z,38.95
2019-04-26T06:18:23.859Z,38.53
2019-04-26T06:21:04.112Z,36.08
2019-04-26T06:23:41.360Z,32.03
2019-04-26T06:26:46.116Z,37.60
2019-04-26T06:29:38.798Z,35.85
2019-04-26T06:32:28.380Z,35.88
2019-04-26T06:35:20.358Z,35.23
2019-04-26T06:38:22.009Z,45.00
2019-04-26T06:41:28.018Z,35.65
2019-04-26T06:44:04.750Z,37.45
2019-04-26T06:46:43.680Z,36.25
2019-04-26T06:49:28.550Z,35.10
2019-04-26T06:52:20.893Z,28.45
2019-04-26T06:54:58.394Z,38.65
2019-04-26T06:58:02.868Z,39.27
2019-04-26T07:00:47.584Z,39.30
2019-04-26T07:03:24.783Z,37.63
2019-04-26T07:06:00.378Z,39.38
2019-04-26T07:08:56.661Z,36.63
2019-04-26T07:11:54.688Z,40.75
2019-04-26T07:15:03.988Z,39.95
2019-04-26T07:17:47.287Z,45.70
2019-04-26T07:20:22.894Z,39.25
2019-04-26T07:23:24.557Z,41.65
2019-04-26T07:26:06.480Z,51.75
2019-04-26T07:28:53.120Z,42.80
2019-04-26T07:31:39.849Z,39.03
2019-04-26T07:34:31.148Z,41.18
2019-04-26T07:37:34.317Z,31.33
2019-04-26T07:40:38.982Z,55.77
2019-04-26T07:43:40.977Z,48.48
2019-04-26T07:49:32.996Z,38.85
2019-04-26T07:52:13.462Z,27.62
2019-04-26T07:55:20.959Z,33.00
2019-04-26T07:58:28.824Z,43.45
2019-04-26T08:01:31.617Z,37.98
2019-04-26T08:04:07.679Z,51.63
2019-04-26T08:06:46.581Z,36.80
2019-04-26T08:09:27.005Z,44.40
2019-04-26T08:12:00.078Z,40.33
2019-04-26T08:14:38.796Z,23.38
2019-04-26T08:17:32.576Z,34.95
2019-04-26T08:22:55.457Z,33.42
2019-04-26T08:25:29.656Z,36.25
2019-04-26T08:28:03.383Z,27.00
2019-04-26T08:30:40.538Z,30.00
2019-04-26T08:33:14.696Z,26.97
2019-04-26T08:35:53.074Z,29.02
2019-04-26T08:38:24.381Z,25.62
2019-04-26T08:40:56.221Z,27.25
2019-04-26T08:43:36.587Z,33.08
2019-04-26T08:46:32.397Z,31.65
2019-04-26T08:49:08.327Z,34.18
2019-04-26T08:51:42.578Z,49.65
2019-04-26T08:56:49.232Z,26.62
2019-04-26T08:59:23.620Z,40.98
2019-04-26T09:02:14.578Z,32.08
2019-04-26T09:05:02.041Z,37.55
2019-04-26T09:07:37.580Z,32.78
2019-04-26T09:10:12.279Z,21.73
2019-04-26T09:12:46.167Z,28.47
2019-04-26T09:15:21.147Z,20.50
2019-04-26T09:17:52.516Z,27.27
2019-04-26T09:20:29.453Z,22.42
2019-04-26T09:25:58.757Z,26.40
2019-04-26T09:28:34.118Z,22.42
2019-04-26T09:31:07.125Z,21.62
2019-04-26T09:33:40.216Z,19.07
2019-04-26T09:36:11.810Z,24.10
2019-04-26T09:38:43.263Z,22.00
2019-04-26T09:41:14.835Z,33.83
2019-04-26T09:43:48.013Z,29.27
2019-04-26T09:46:37.333Z,26.17
2019-04-26T09:49:10.423Z,23.27
2019-04-26T09:51:42.295Z,25.23
2019-04-26T09:54:15.447Z,27.20
2019-04-26T09:59:17.467Z,31.65
2019-04-26T10:01:49.037Z,29.50
2019-04-26T10:04:20.629Z,30.77
2019-04-26T10:06:52.093Z,31.57
2019-04-26T10:09:25.550Z,33.38
2019-04-26T10:12:01.817Z,25.27
2019-04-26T10:14:41.139Z,28.70
2019-04-26T10:17:17.460Z,34.67
2019-04-26T10:19:50.921Z,30.10
2019-04-26T10:24:57.440Z,32.58
2019-04-26T10:27:28.928Z,34.33
2019-04-26T10:30:07.663Z,49.45
2019-04-26T10:32:33.832Z,31.15
2019-04-26T10:35:06.597Z,36.23
2019-04-26T10:37:39.644Z,32.30
2019-04-26T10:42:42.564Z,32.78
2019-04-26T10:45:16.234Z,32.95
2019-04-26T10:47:47.633Z,45.15
2019-04-26T10:50:19.555Z,45.83
2019-04-26T10:53:11.059Z,35.63
2019-04-26T10:55:46.485Z,37.88
2019-04-26T10:58:31.915Z,34.08
2019-04-26T11:01:03.255Z,39.45
2019-04-26T11:06:06.340Z,34.65
2019-04-26T11:08:37.893Z,30.05
2019-04-26T11:11:10.045Z,42.33
2019-04-26T11:13:41.578Z,30.40
2019-04-26T11:16:13.090Z,40.40
2019-04-26T11:18:44.586Z,32.42
2019-04-26T11:21:16.278Z,34.75
2019-04-26T11:26:21.373Z,30.43
2019-04-26T11:28:55.645Z,32.93
2019-04-26T11:31:27.841Z,34.08
2019-04-26T11:34:05.075Z,23.90
2019-04-26T11:39:05.542Z,35.13
2019-04-26T11:41:39.088Z,29.77
2019-04-26T11:44:10.807Z,32.88
2019-04-26T11:46:44.897Z,34.75
2019-04-26T11:49:16.720Z,24.52
2019-04-26T11:51:48.563Z,32.25
2019-04-26T11:54:22.002Z,34.67
2019-04-26T11:56:54.302Z,30.00
2019-04-26T11:59:26.990Z,21.70
2019-04-26T12:04:34.130Z,32.03
2019-04-26T12:07:10.324Z,33.13
2019-04-26T12:09:43.464Z,25.57
2019-04-26T12:12:14.731Z,21.45
2019-04-26T12:14:46.228Z,24.02
2019-04-26T12:17:17.662Z,27.55
2019-04-26T12:19:52.260Z,34.67
2019-04-26T12:22:23.579Z,30.52
2019-04-26T12:24:55.056Z,30.08
2019-04-26T12:27:30.373Z,22.90
2019-04-26T12:32:30.099Z,33.23
2019-04-26T12:35:01.798Z,23.70
2019-04-26T12:37:33.384Z,38.92
2019-04-26T12:40:07.219Z,29.87
2019-04-26T12:42:39.298Z,32.73
2019-04-26T12:45:24.995Z,32.70
2019-04-26T12:48:01.022Z,29.63
2019-04-26T12:53:04.972Z,44.08
2019-04-26T12:55:36.677Z,23.98
2019-04-26T12:58:11.044Z,21.90
2019-04-26T13:03:20.212Z,37.60
2019-04-26T13:08:19.766Z,28.47
2019-04-26T13:11:18.526Z,29.42
2019-04-26T13:13:54.533Z,17.57
2019-04-26T13:16:27.882Z,29.23
2019-04-26T13:18:59.490Z,32.90
2019-04-26T13:21:33.073Z,22.22
2019-04-26T13:24:06.247Z,29.80
2019-04-26T13:26:38.010Z,24.67
2019-04-26T13:29:09.588Z,26.02
2019-04-26T13:31:41.343Z,20.92
2019-04-26T13:34:13.218Z,23.70
2019-04-26T13:36:45.426Z,31.35
2019-04-26T13:39:17.945Z,19.98
2019-04-26T13:42:02.193Z,24.37
2019-04-26T13:44:41.839Z,23.50
2019-04-26T13:47:21.019Z,18.27
2019-04-26T13:49:54.308Z,17.85
2019-04-26T13:54:56.519Z,27.80
2019-04-26T13:57:28.383Z,26.60
2019-04-26T14:00:02.558Z,35.50
2019-04-26T14:02:34.336Z,20.00
2019-04-26T14:05:06.264Z,20.97
2019-04-26T14:07:37.861Z,27.95
2019-04-26T14:10:09.391Z,23.18
2019-04-26T14:12:40.986Z,26.45
2019-04-26T14:15:12.521Z,31.80
2019-04-26T14:17:44.210Z,23.65
2019-04-26T14:20:19.312Z,19.42
2019-04-26T14:23:06.221Z,25.45
2019-04-26T14:25:57.481Z,23.18
2019-04-26T14:28:29.047Z,25.50
2019-04-26T14:31:00.517Z,23.62
2019-04-26T14:33:32.300Z,24.87
2019-04-26T14:36:17.095Z,29.18
2019-04-26T14:38:40.058Z,27.07
2019-04-26T14:41:13.558Z,17.55
2019-04-26T14:46:16.373Z,20.23
2019-04-26T14:49:01.303Z,20.60
2019-04-26T14:51:25.515Z,26.55
2019-04-26T14:53:57.102Z,19.77
2019-04-26T14:56:29.299Z,20.02
2019-04-26T15:01:52.301Z,25.70
2019-04-26T15:04:34.997Z,21.42
2019-04-26T15:07:07.040Z,26.68
2019-04-26T15:09:38.436Z,39.50
2019-04-26T15:12:12.499Z,24.67
2019-04-26T15:17:16.334Z,22.58
2019-04-26T15:22:18.522Z,36.03
2019-04-26T15:24:50.127Z,22.45
2019-04-26T15:27:21.619Z,21.20
2019-04-26T15:29:53.330Z,20.82
2019-04-26T15:32:27.986Z,23.65
2019-04-26T15:34:58.594Z,20.43
2019-04-26T15:37:32.076Z,17.30
2019-04-26T15:40:22.575Z,21.75
2019-04-26T15:43:01.347Z,31.87
2019-04-26T15:45:32.593Z,41.92
2019-04-26T15:48:08.383Z,34.67
2019-04-26T15:50:50.154Z,25.40
2019-04-26T15:53:14.860Z,28.83
2019-04-26T15:55:47.538Z,38.35
2019-04-26T15:58:18.992Z,38.40
2019-04-26T16:00:50.634Z,25.25
2019-04-26T16:03:22.742Z,34.53
2019-04-26T16:08:26.023Z,33.35
2019-04-26T16:10:57.576Z,27.98
2019-04-26T16:13:29.273Z,21.55
2019-04-26T16:16:02.026Z,24.20
2019-04-26T16:18:34.063Z,30.70
2019-04-26T16:21:05.717Z,29.48
2019-04-26T16:23:41.226Z,21.97
2019-04-26T16:28:45.803Z,27.77
2019-04-26T16:31:22.076Z,41.88
2019-04-26T16:33:58.214Z,26.40
2019-04-26T16:36:29.784Z,25.35
2019-04-26T16:39:05.751Z,19.87
2019-04-26T16:41:38.695Z,20.70
2019-04-26T16:44:13.019Z,22.27
2019-04-26T16:49:15.252Z,30.20
2019-04-26T16:51:54.478Z,29.55
2019-04-26T16:54:21.786Z,29.35
2019-04-26T16:59:26.757Z,23.45
2019-04-26T17:02:01.494Z,26.45
2019-04-26T17:04:32.299Z,28.15
2019-04-26T17:07:05.077Z,34.48
2019-04-26T17:09:55.799Z,24.50
2019-04-26T17:12:15.008Z,26.90
2019-04-26T17:14:47.773Z,28.12
2019-04-26T17:17:17.374Z,26.30
2019-04-26T17:19:48.933Z,29.72
2019-04-26T17:22:41.831Z,30.97
2019-04-26T17:25:02.785Z,36.65
2019-04-26T17:30:08.722Z,32.25
2019-04-26T17:32:40.133Z,33.25
2019-04-26T17:35:11.550Z,43.17
2019-04-26T17:37:43.406Z,37.60
2019-04-26T17:40:14.964Z,51.15
2019-04-26T17:42:46.744Z,51.58
2019-04-26T17:45:18.281Z,55.78
2019-04-26T17:47:50.691Z,39.53
2019-04-26T17:50:22.986Z,46.77
2019-04-26T17:52:54.469Z,50.40
2019-04-26T17:55:26.048Z,35.13
2019-04-26T17:58:11.595Z,50.88
2019-04-26T18:00:45.507Z,36.38
2019-04-26T18:03:07.606Z,45.03
2019-04-26T18:08:31.357Z,35.00
2019-04-26T18:10:42.946Z,30.45
2019-04-26T18:13:16.273Z,27.52
2019-04-26T18:15:48.631Z,45.30
2019-04-26T18:18:28.221Z,30.92
2019-04-26T18:21:02.976Z,29.25
2019-04-26T18:23:34.620Z,34.20
2019-04-26T18:26:06.147Z,35.20
2019-04-26T18:28:37.618Z,37.73
2019-04-26T18:31:10.845Z,26.70
2019-04-26T18:33:42.641Z,31.87
2019-04-26T18:36:14.050Z,33.45
2019-04-26T18:38:48.582Z,32.65
2019-04-26T18:41:18.670Z,34.23
2019-04-26T18:43:55.594Z,30.27
2019-04-26T18:46:27.568Z,24.12
2019-04-26T18:48:59.001Z,32.50
2019-04-26T18:51:30.543Z,22.50
2019-04-26T18:54:17.843Z,21.85
2019-04-26T18:56:55.248Z,35.95
2019-04-26T18:59:27.949Z,35.52
2019-04-26T19:01:59.632Z,31.00
2019-04-26T19:04:31.168Z,43.68
2019-04-26T19:07:03.698Z,37.10
2019-04-26T19:09:56.654Z,31.48
2019-04-26T19:12:11.786Z,35.08
2019-04-26T19:14:49.825Z,40.65
2019-04-26T19:17:36.089Z,47.17
2019-04-26T19:20:25.910Z,49.00
2019-04-26T19:23:05.260Z,42.10
2019-04-26T19:25:40.877Z,48.48
2019-04-26T19:28:12.148Z,61.42
2019-04-26T19:30:49.320Z,52.70
2019-04-26T19:33:18.582Z,58.45
2019-04-26T19:35:50.486Z,41.88
2019-04-26T19:38:22.078Z,47.88
2019-04-26T19:40:53.563Z,42.85
2019-04-26T19:43:31.007Z,47.50
2019-04-26T19:46:01.441Z,42.20
2019-04-26T19:48:35.831Z,45.58
2019-04-26T19:51:08.936Z,50.88
2019-04-26T19:53:54.166Z,43.40
2019-04-26T19:56:35.911Z,54.75
2019-04-26T19:59:07.494Z,58.05
2019-04-26T20:01:39.070Z,72.90
2019-04-26T20:04:14.983Z,89.07
2019-04-26T20:06:48.397Z,72.25
2019-04-26T20:09:22.874Z,61.80
2019-04-26T20:11:57.933Z,74.50
2019-04-26T20:14:39.928Z,54.10
2019-04-26T20:17:01.751Z,62.67
2019-04-26T20:19:37.265Z,53.15
2019-04-26T20:22:06.779Z,46.53
2019-04-26T20:24:38.249Z,44.48
2019-04-26T20:27:14.951Z,57.48
2019-04-26T20:29:47.306Z,54.10
2019-04-26T20:32:21.143Z,57.80
2019-04-26T20:34:52.638Z,57.78
2019-04-26T20:37:25.796Z,72.87
2019-04-26T20:40:16.239Z,64.37
2019-04-26T20:42:31.621Z,69.45
2019-04-26T20:45:04.516Z,91.35
2019-04-26T20:47:36.858Z,81.70
2019-04-26T20:50:08.951Z,81.10
2019-04-26T20:52:41.442Z,78.37
2019-04-26T20:55:13.769Z,82.00
2019-04-26T20:57:45.471Z,79.30
2019-04-26T21:00:17.039Z,67.53
2019-04-26T21:02:48.540Z,78.85
2019-04-26T21:05:21.386Z,69.72
2019-04-26T21:07:52.869Z,69.95
2019-04-26T21:10:25.742Z,76.37
2019-04-26T21:12:57.428Z,75.67
2019-04-26T21:15:29.018Z,77.45
2019-04-26T21:18:01.333Z,78.80
2019-04-26T21:20:36.420Z,81.45
2019-04-26T21:23:06.904Z,75.75
2019-04-26T21:25:48.936Z,70.00
2019-04-26T21:28:32.924Z,70.35
2019-04-26T21:31:12.127Z,74.45
2019-04-26T21:34:03.751Z,68.30
2019-04-26T21:36:41.056Z,68.75
2019-04-26T21:39:17.812Z,64.85
2019-04-26T21:41:51.003Z,55.35
2019-04-26T21:44:22.577Z,64.85
2019-04-26T21:46:58.628Z,74.12
2019-04-26T21:49:27.221Z,62.60
2019-04-26T21:51:58.608Z,66.75
2019-04-26T21:54:29.884Z,56.58
2019-04-26T21:57:01.230Z,64.80
2019-04-26T21:59:35.196Z,140.07
2019-04-26T22:02:06.813Z,135.32
2019-04-26T22:04:38.370Z,292.32
2019-04-26T22:07:09.908Z,128.47
2019-04-26T22:09:52.892Z,131.93
2019-04-26T22:12:27.236Z,98.30
2019-04-26T22:15:00.950Z,79.42
2019-04-26T22:17:40.423Z,90.97
2019-04-26T22:20:27.868Z,75.70
2019-04-26T22:23:16.426Z,89.15
2019-04-26T22:25:48.719Z,86.02
2019-04-26T22:28:20.222Z,87.47
2019-04-26T22:30:51.720Z,89.83
2019-04-26T22:33:27.405Z,93.92
2019-04-26T22:35:58.702Z,87.50
2019-04-26T22:38:30.233Z,88.33
2019-04-26T22:41:03.042Z,74.62
2019-04-26T22:46:18.717Z,133.30
2019-04-26T22:48:54.895Z,79.22
2019-04-26T22:51:24.032Z,60.35
2019-04-26T22:53:57.662Z,41.80
2019-04-26T22:56:32.529Z,31.57
2019-04-26T22:59:15.212Z,33.80
2019-04-26T23:01:48.882Z,39.55
2019-04-26T23:04:23.665Z,35.13
2019-04-26T23:06:56.469Z,28.80
2019-04-26T23:09:27.923Z,26.87
2019-04-26T23:12:01.476Z,39.25
2019-04-26T23:17:15.277Z,34.95
2019-04-26T23:19:57.559Z,32.85
2019-04-26T23:22:31.099Z,26.33
2019-04-26T23:25:03.529Z,41.70
2019-04-26T23:27:35.270Z,25.95
2019-04-26T23:30:07.000Z,38.50
2019-04-26T23:32:38.533Z,41.37
2019-04-26T23:35:09.983Z,36.05
2019-04-26T23:37:41.534Z,31.20
2019-04-26T23:40:13.412Z,29.60
2019-04-26T23:42:47.604Z,26.20
2019-04-26T23:45:48.356Z,32.67
2019-04-26T23:48:19.215Z,23.87
2019-04-26T23:50:51.019Z,32.33
2019-04-26T23:53:24.015Z,38.23
2019-04-26T23:55:55.692Z,24.32
2019-04-26T23:58:27.137Z,38.28
